Alpha Friendship — SVAV9 — position and weather

sailwx.info

Track history (hours):
 
Tides and Currents Weather Stations Pressure Air Temp Water Temp Dewpoint Dewpoint Depression Visibility Wind Speed Wind Dir Waves Ship Positions

Alpha Friendship

Last reported at 2015-Jun-30 14:33 UTC. Time now 2015-Jul-02 16:31 UTC.
Position S 32°25' E 152°47'.

Length 280 m; draft 15.5 m.

Type: Cargo ship. MMSI: 240965000.

Date/timePositionNaut miles runAvg speedWind from/ knotsBaromVisibWave heightAir tempDewpointWater temp
2015-Jun-30 14:33S 32°25' E 152°47'1010.5
2015-Jun-30 13:33S 32°34' E 152°41'1111.4
2015-Jun-30 12:34S 32°44' E 152°34'1111.4
2015-Jun-30 11:34S 32°50' E 152°22'1111.3
2015-Jun-30 10:33S 32°54' E 152°10'1111.4
2015-Jun-30 09:34S 32°56' E 151°57'8 8.1
2015-Jun-30 08:34S 32°55' E 151°47'3 2.8
2015-Jun-30 07:34S 32°53' E 151°45'0 0.1
2015-Jun-30 06:30S 32°53' E 151°45'0 0.0
2015-Jun-30 05:33S 32°53' E 151°45'0 0.1
2015-Jun-30 04:33S 32°53' E 151°45'0 0.1
2015-Jun-30 03:33S 32°53' E 151°45'0 0.0
2015-Jun-30 00:15S 32°53' E 151°45'0 0.0
2015-Jun-29 23:33S 32°53' E 151°45'0 0.0
2015-Jun-29 22:27S 32°53' E 151°45'0 0.0
2015-Jun-29 21:33S 32°53' E 151°45'0 0.0
2015-Jun-29 20:15S 32°53' E 151°45'0 0.0
2015-Jun-29 19:33S 32°53' E 151°45'0 0.0
2015-Jun-29 18:33S 32°53' E 151°45'0 0.0
2015-Jun-29 17:33S 32°53' E 151°45'0 0.0
2015-Jun-29 16:33S 32°53' E 151°45'0 0.0
2015-Jun-29 15:33S 32°53' E 151°45'0 0.0
2015-Jun-29 14:30S 32°53' E 151°45'0 0.0
2015-Jun-29 13:21S 32°53' E 151°45'0 0.0
2015-Jun-29 12:27S 32°53' E 151°45'0 0.0
2015-Jun-29 11:33S 32°53' E 151°45'0 0.0
2015-Jun-29 10:24S 32°53' E 151°45'0 0.0
2015-Jun-29 09:33S 32°53' E 151°45'0 0.0
2015-Jun-29 08:33S 32°53' E 151°45'0 0.0
2015-Jun-29 03:33S 32°53' E 151°45'0 0.0
2015-Jun-29 02:33S 32°53' E 151°45'1 0.3
2015-Jun-28 23:33S 32°53' E 151°46'5 5.0
2015-Jun-28 22:33S 32°56' E 151°51'8 8.3
2015-Jun-28 21:33S 32°56' E 152°01'1212.4
2015-Jun-28 20:33S 32°53' E 152°15'1212.2
2015-Jun-28 19:33S 32°50' E 152°30'1212.0
2015-Jun-28 18:33S 32°40' E 152°37'1412.4
2015-Jun-28 17:26S 32°28' E 152°45'33213.2
2015-Jun-27 16:21S 27°03' E 154°05'  
Track history (hours):
 
Tides and Currents Weather Stations Pressure Air Temp Water Temp Dewpoint Dewpoint Depression Visibility Wind Speed Wind Dir Waves Ship Positions

Alpha Friendship

Last reported at 2015-Jun-30 14:33 UTC. Time now 2015-Jul-02 16:31 UTC.
Position S 32°25' E 152°47'.

Length 280 m; draft 15.5 m.

Type: Cargo ship. MMSI: 240965000.

Date/timePositionNaut miles runAvg speedWind from/ knotsBaromVisibWave heightAir tempDewpointWater temp
2015-Jun-30 14:33S 32°25' E 152°47'1010.5
2015-Jun-30 13:33S 32°34' E 152°41'1111.4
2015-Jun-30 12:34S 32°44' E 152°34'1111.4
2015-Jun-30 11:34S 32°50' E 152°22'1111.3
2015-Jun-30 10:33S 32°54' E 152°10'1111.4
2015-Jun-30 09:34S 32°56' E 151°57'8 8.1
2015-Jun-30 08:34S 32°55' E 151°47'3 2.8
2015-Jun-30 07:34S 32°53' E 151°45'0 0.1
2015-Jun-30 06:30S 32°53' E 151°45'0 0.0
2015-Jun-30 05:33S 32°53' E 151°45'0 0.1
2015-Jun-30 04:33S 32°53' E 151°45'0 0.1
2015-Jun-30 03:33S 32°53' E 151°45'0 0.0
2015-Jun-30 00:15S 32°53' E 151°45'0 0.0
2015-Jun-29 23:33S 32°53' E 151°45'0 0.0
2015-Jun-29 22:27S 32°53' E 151°45'0 0.0
2015-Jun-29 21:33S 32°53' E 151°45'0 0.0
2015-Jun-29 20:15S 32°53' E 151°45'0 0.0
2015-Jun-29 19:33S 32°53' E 151°45'0 0.0
2015-Jun-29 18:33S 32°53' E 151°45'0 0.0
2015-Jun-29 17:33S 32°53' E 151°45'0 0.0
2015-Jun-29 16:33S 32°53' E 151°45'0 0.0
2015-Jun-29 15:33S 32°53' E 151°45'0 0.0
2015-Jun-29 14:30S 32°53' E 151°45'0 0.0
2015-Jun-29 13:21S 32°53' E 151°45'0 0.0
2015-Jun-29 12:27S 32°53' E 151°45'0 0.0
2015-Jun-29 11:33S 32°53' E 151°45'0 0.0
2015-Jun-29 10:24S 32°53' E 151°45'0 0.0
2015-Jun-29 09:33S 32°53' E 151°45'0 0.0
2015-Jun-29 08:33S 32°53' E 151°45'0 0.0
2015-Jun-29 03:33S 32°53' E 151°45'0 0.0
2015-Jun-29 02:33S 32°53' E 151°45'1 0.3
2015-Jun-28 23:33S 32°53' E 151°46'5 5.0
2015-Jun-28 22:33S 32°56' E 151°51'8 8.3
2015-Jun-28 21:33S 32°56' E 152°01'1212.4
2015-Jun-28 20:33S 32°53' E 152°15'1212.2
2015-Jun-28 19:33S 32°50' E 152°30'1212.0
2015-Jun-28 18:33S 32°40' E 152°37'1412.4
2015-Jun-28 17:26S 32°28' E 152°45'33213.2
2015-Jun-27 16:21S 27°03' E 154°05'  

Dump ship's entire track history